^^

Nearby METAR Reports


EGAC - Belfast Harbour, United Kingdom
Distance from station: W 8mi, 13km
Updated: 02/02/2023 19:50
Overcast
Overcast
 Wind from SW
Wind: SW 12 mph , 19 km/h, Gust: 23 mph , 37 km/h
Temperature: 11°C
Dew Point: 8°C
Humidity: 82%
Barometer: 1021 hPa
Clouds: Overcast
Visibility: 6 miles , 10 km
Cloud details: Overcast 518 m
2023/02/02 19:50 EGAC 021950Z AUTO 22010G20KT 180V270 9999 OVC017 11/08 Q1021
EGAA - Belfast/Aldergro, United Kingdom
Distance from station: W 22mi, 35km
Updated: 02/02/2023 19:50
Overcast
Overcast
 Wind from WSW
Wind: WSW 14 mph , 22 km/h
Temperature: 9°C
Wind Chill: 6°C
Dew Point: 7°C
Humidity: 87%
Barometer: 1021 hPa
Clouds: Overcast
Visibility: 6 miles , 10 km
Cloud details: Overcast 488 m
2023/02/02 19:50 EGAA 021950Z AUTO 24012KT 9999 OVC016 09/07 Q1021
 
EGNS - Isle Of Man/Rona, United Kingdom
Distance from station: SE 57mi, 91km
Updated: 02/02/2023 19:50
Few Clouds
Few Clouds
 Wind from WSW
Wind: WSW 25 mph , 41 km/h
Temperature: 10°C
Wind Chill: 6°C
Dew Point: 7°C
Humidity: 82%
Barometer: 1021 hPa
Clouds: Few Clouds
Visibility: 6 miles , 10 km
Cloud details: Few Clouds 853 m
2023/02/02 19:50 EGNS 021950Z 25022KT 9999 FEW028 10/07 Q1021 NOSIG
EGPK - Prestwick(Civ/Na, United Kingdom
Distance from station: NE 74mi, 119km
Updated: 02/02/2023 19:50
Light rain, Mostly cloudy
Light rain, Mostly cloudy
 Wind from WSW
Wind: WSW 22 mph , 35 km/h
Temperature: 9°C
Wind Chill: 5°C
Dew Point: 8°C
Humidity: 94%
Barometer: 1018 hPa
Summary: Light rain
Clouds: Mostly cloudy
Visibility: 6 miles , 10 km
Cloud details: Few Clouds 701 m
Mostly cloudy 1036 m
2023/02/02 19:50 EGPK 021950Z 24019KT 9999 -RA FEW023 BKN034 09/08 Q1018
 
EIDW - Dublin Airport, Ireland
Distance from station: SSW 87mi, 141km
Updated: 02/02/2023 20:00
Mostly cloudy
Mostly cloudy
 Wind from WSW
Wind: WSW 13 mph , 20 km/h
Temperature: 10°C
Wind Chill: 7°C
Dew Point: 7°C
Humidity: 82%
Barometer: 1024 hPa
Clouds: Mostly cloudy
Visibility: 6 miles , 10 km
Cloud details: Few Clouds 366 m
Partly cloudy 610 m
Mostly cloudy 762 m
2023/02/02 20:00 EIDW 022000Z 24011KT 190V280 9999 FEW012 SCT020 BKN025 10/07 Q1024 NOSIG
EGPF - Glasgow Airport, United Kingdom
Distance from station: NNE 98mi, 158km
Updated: 02/02/2023 19:50
Overcast
Overcast
 Wind from WSW
Wind: WSW 26 mph , 43 km/h
Temperature: 10°C
Wind Chill: 6°C
Dew Point: 8°C
Humidity: 88%
Barometer: 1016 hPa
Clouds: Overcast
Visibility: 6 miles , 10 km
Cloud details: Mostly cloudy 396 m
Mostly cloudy 549 m
Overcast 945 m
2023/02/02 19:50 EGPF 021950Z AUTO 24023KT 9999 BKN013 BKN018 OVC031 10/08 Q1016